Airfield :
LOGIN :

Register | Disclaimer

   EN    FR    IT 

 










Legend :    VFR   Marginal VFR   IFR   Intensive IFR   Very Intensive IFR
Visi :
Ceiling :
>= 8 km
>= 3000ft
5 to 8 km
1000 to 3000 ft
1500m to 5 km
500 to 1000 ft
800 to 1500m
200 to 500 ft
< 800m
< 200 ft
Symbols :   Thunderstorms  Fog  Heavy snow  Heavy precipitations  Wind > 20 kt
SIGMETs :     Misc.  Thunderstorms  Icing  Turbulence  Mountain Waves  Volcanic Ashes







- Airport Elevation : 1411 ft
- IATA code : GVA


LSGG - Genève Cointrin

CURRENT METAR :
  • 231350Z 08003KT 010V150 9999 FEW025 BKN100 12/05 Q1010 NOSIG

EXPIRED METARs :
  • 231320Z 36003KT 310V100 9999 FEW022 BKN100 12/06 Q1010 NOSIG
  • 231250Z 01003KT 330V100 9999 FEW022 BKN100 12/05 Q1011 NOSIG
  • 231220Z 03007KT 9999 FEW022 BKN110 11/05 Q1011 NOSIG
  • 231150Z 04008KT 9999 FEW022 OVC240 11/05 Q1011 NOSIG
  • 231120Z 04010KT 9999 FEW018 OVC240 11/05 Q1011 NOSIG

TAF TAF LSGG
Valid from the 23 at 12:00 until the 24 at 18:00 UTC


231125Z 2312/2418 05007KT 9999 SCT020 BKN240 TX14/2315Z TN07/2406Z TX14/2415Z
PROB30
TEMPO 2316/2321 TSRA SCT030CB BKN050
BECMG 2318/2320 VRB03KT
BECMG 2410/2412 05007KT
ATIS : +41 22 417 40 81
No reported NOTAMs for that airfield.



MET'MAP, your aeronautical weather chart ! - Copyright ORBIFLY December 2007 - Disclaimer

ORBIFLY MET'MAP TEAM :

Programming & Development : Alexandra Zaïnal
Concept & Development : Baudouin d'Aumeries
Co-Development & Prog : Marc-Olivier Méhu
Technical & hardware support : Manuel Goepfert

Contact : metmap@orbifly.com




SOURCES & CREDITS :

   NOAA